sensor_id;sensor_type;location;lat;lon;timestamp;P1;durP1;ratioP1;P2;durP2;ratioP2
67751;SDS011;54551;51.068;5.826;2022-09-09T00:19:23;9.90;;;5.80;;
67751;SDS011;54551;51.068;5.826;2022-09-09T06:06:33;19.17;;;10.20;;
67751;SDS011;54551;51.068;5.826;2022-09-09T06:09:21;20.03;;;10.17;;
67751;SDS011;54551;51.068;5.826;2022-09-09T06:31:34;16.27;;;9.80;;
67751;SDS011;54551;51.068;5.826;2022-09-09T06:34:13;21.60;;;9.50;;
67751;SDS011;54551;51.068;5.826;2022-09-09T06:36:58;19.30;;;9.57;;
67751;SDS011;54551;51.068;5.826;2022-09-09T06:39:38;13.60;;;9.57;;
67751;SDS011;54551;51.068;5.826;2022-09-09T06:42:22;18.07;;;9.87;;
67751;SDS011;54551;51.068;5.826;2022-09-09T06:44:48;19.07;;;9.53;;
67751;SDS011;54551;51.068;5.826;2022-09-09T06:47:28;18.53;;;9.67;;
67751;SDS011;54551;51.068;5.826;2022-09-09T06:49:59;19.97;;;9.73;;
67751;SDS011;54551;51.068;5.826;2022-09-09T06:52:36;18.07;;;9.63;;
67751;SDS011;54551;51.068;5.826;2022-09-09T06:55:04;23.60;;;10.57;;
67751;SDS011;54551;51.068;5.826;2022-09-09T06:57:54;16.23;;;9.77;;
67751;SDS011;54551;51.068;5.826;2022-09-09T07:00:36;18.80;;;9.93;;
67751;SDS011;54551;51.068;5.826;2022-09-09T07:03:09;19.00;;;9.70;;
67751;SDS011;54551;51.068;5.826;2022-09-09T07:05:36;24.20;;;11.17;;
67751;SDS011;54551;51.068;5.826;2022-09-09T07:08:08;18.30;;;10.20;;
67751;SDS011;54551;51.068;5.826;2022-09-09T07:10:36;16.00;;;9.67;;
67751;SDS011;54551;51.068;5.826;2022-09-09T07:13:12;21.67;;;9.60;;
67751;SDS011;54551;51.068;5.826;2022-09-09T07:15:43;18.27;;;10.90;;
67751;SDS011;54551;51.068;5.826;2022-09-09T07:18:17;21.30;;;11.87;;
67751;SDS011;54551;51.068;5.826;2022-09-09T07:21:07;22.37;;;12.17;;
67751;SDS011;54551;51.068;5.826;2022-09-09T07:23:46;21.80;;;11.40;;
67751;SDS011;54551;51.068;5.826;2022-09-09T07:26:19;20.13;;;10.67;;
67751;SDS011;54551;51.068;5.826;2022-09-09T07:28:50;23.33;;;10.87;;
67751;SDS011;54551;51.068;5.826;2022-09-09T07:31:17;23.33;;;10.10;;
67751;SDS011;54551;51.068;5.826;2022-09-09T07:34:07;17.50;;;9.63;;
67751;SDS011;54551;51.068;5.826;2022-09-09T07:36:35;18.93;;;9.93;;
67751;SDS011;54551;51.068;5.826;2022-09-09T07:39:19;19.87;;;9.53;;
67751;SDS011;54551;51.068;5.826;2022-09-09T07:41:50;21.37;;;9.30;;
67751;SDS011;54551;51.068;5.826;2022-09-09T07:44:50;18.50;;;9.07;;
67751;SDS011;54551;51.068;5.826;2022-09-09T07:47:20;20.23;;;8.87;;
67751;SDS011;54551;51.068;5.826;2022-09-09T07:49:50;19.87;;;9.60;;
67751;SDS011;54551;51.068;5.826;2022-09-09T07:52:38;17.20;;;8.83;;
67751;SDS011;54551;51.068;5.826;2022-09-09T07:55:30;13.87;;;9.17;;
67751;SDS011;54551;51.068;5.826;2022-09-09T08:05:49;13.40;;;7.67;;
67751;SDS011;54551;51.068;5.826;2022-09-09T08:08:36;15.23;;;8.30;;
67751;SDS011;54551;51.068;5.826;2022-09-09T08:11:28;20.10;;;9.17;;
67751;SDS011;54551;51.068;5.826;2022-09-09T08:14:41;12.63;;;8.73;;
67751;SDS011;54551;51.068;5.826;2022-09-09T08:17:09;13.53;;;7.93;;
67751;SDS011;54551;51.068;5.826;2022-09-09T08:19:36;20.70;;;9.43;;
67751;SDS011;54551;51.068;5.826;2022-09-09T08:22:14;19.17;;;9.83;;
67751;SDS011;54551;51.068;5.826;2022-09-09T08:24:40;15.13;;;9.80;;
67751;SDS011;54551;51.068;5.826;2022-09-09T08:27:07;21.23;;;9.23;;
67751;SDS011;54551;51.068;5.826;2022-09-09T08:29:36;16.47;;;9.13;;
67751;SDS011;54551;51.068;5.826;2022-09-09T08:32:09;14.50;;;8.80;;
67751;SDS011;54551;51.068;5.826;2022-09-09T08:34:37;18.60;;;9.20;;
67751;SDS011;54551;51.068;5.826;2022-09-09T08:37:34;21.20;;;10.03;;
67751;SDS011;54551;51.068;5.826;2022-09-09T08:40:17;20.13;;;9.03;;
67751;SDS011;54551;51.068;5.826;2022-09-09T08:42:58;17.37;;;8.83;;
67751;SDS011;54551;51.068;5.826;2022-09-09T08:46:00;15.13;;;8.63;;
67751;SDS011;54551;51.068;5.826;2022-09-09T08:48:53;16.50;;;7.93;;
67751;SDS011;54551;51.068;5.826;2022-09-09T08:51:27;14.50;;;7.67;;
67751;SDS011;54551;51.068;5.826;2022-09-09T08:54:08;17.97;;;8.67;;
67751;SDS011;54551;51.068;5.826;2022-09-09T08:56:38;19.00;;;8.23;;
67751;SDS011;54551;51.068;5.826;2022-09-09T08:59:11;15.17;;;8.03;;
67751;SDS011;54551;51.068;5.826;2022-09-09T09:02:15;15.90;;;7.20;;
67751;SDS011;54551;51.068;5.826;2022-09-09T09:14:03;12.43;;;6.47;;
67751;SDS011;54551;51.068;5.826;2022-09-09T09:17:01;15.90;;;7.63;;
67751;SDS011;54551;51.068;5.826;2022-09-09T09:20:54;14.10;;;6.80;;
67751;SDS011;54551;51.068;5.826;2022-09-09T09:30:26;12.17;;;7.30;;
67751;SDS011;54551;51.068;5.826;2022-09-09T09:36:32;13.20;;;6.87;;
67751;SDS011;54551;51.068;5.826;2022-09-09T09:39:48;9.57;;;5.80;;
67751;SDS011;54551;51.068;5.826;2022-09-09T09:45:49;8.90;;;5.30;;
67751;SDS011;54551;51.068;5.826;2022-09-09T09:48:16;15.83;;;5.33;;
67751;SDS011;54551;51.068;5.826;2022-09-09T09:53:35;10.97;;;4.50;;
67751;SDS011;54551;51.068;5.826;2022-09-09T09:59:34;8.90;;;4.00;;
67751;SDS011;54551;51.068;5.826;2022-09-09T10:02:20;11.27;;;3.00;;
67751;SDS011;54551;51.068;5.826;2022-09-09T10:05:08;6.67;;;2.80;;
67751;SDS011;54551;51.068;5.826;2022-09-09T10:08:01;7.50;;;2.40;;
67751;SDS011;54551;51.068;5.826;2022-09-09T10:14:20;9.40;;;2.67;;
67751;SDS011;54551;51.068;5.826;2022-09-09T10:17:32;6.07;;;2.37;;
67751;SDS011;54551;51.068;5.826;2022-09-09T10:36:26;6.33;;;1.43;;
67751;SDS011;54551;51.068;5.826;2022-09-09T10:42:39;6.50;;;1.83;;
67751;SDS011;54551;51.068;5.826;2022-09-09T10:48:41;5.30;;;1.80;;
67751;SDS011;54551;51.068;5.826;2022-09-09T10:52:45;5.20;;;1.80;;
67751;SDS011;54551;51.068;5.826;2022-09-09T10:59:22;6.57;;;2.03;;
67751;SDS011;54551;51.068;5.826;2022-09-09T11:06:54;6.63;;;1.80;;
67751;SDS011;54551;51.068;5.826;2022-09-09T11:32:13;5.57;;;2.90;;
67751;SDS011;54551;51.068;5.826;2022-09-09T11:39:18;5.03;;;2.67;;
67751;SDS011;54551;51.068;5.826;2022-09-09T11:47:15;6.00;;;2.60;;
67751;SDS011;54551;51.068;5.826;2022-09-09T12:02:33;6.57;;;1.93;;
67751;SDS011;54551;51.068;5.826;2022-09-09T12:32:45;6.30;;;1.97;;
67751;SDS011;54551;51.068;5.826;2022-09-09T12:36:09;4.47;;;2.17;;
67751;SDS011;54551;51.068;5.826;2022-09-09T12:40:03;4.73;;;1.60;;
67751;SDS011;54551;51.068;5.826;2022-09-09T12:43:19;5.20;;;2.00;;
67751;SDS011;54551;51.068;5.826;2022-09-09T12:46:14;3.80;;;1.63;;
67751;SDS011;54551;51.068;5.826;2022-09-09T12:49:59;5.40;;;1.67;;
67751;SDS011;54551;51.068;5.826;2022-09-09T12:53:03;5.67;;;1.87;;
67751;SDS011;54551;51.068;5.826;2022-09-09T12:56:47;10.30;;;2.87;;
67751;SDS011;54551;51.068;5.826;2022-09-09T12:59:35;10.63;;;2.70;;
67751;SDS011;54551;51.068;5.826;2022-09-09T13:05:27;4.17;;;1.33;;
67751;SDS011;54551;51.068;5.826;2022-09-09T13:08:06;3.67;;;1.37;;
67751;SDS011;54551;51.068;5.826;2022-09-09T13:11:24;4.30;;;1.30;;
67751;SDS011;54551;51.068;5.826;2022-09-09T13:14:17;2.97;;;1.43;;
67751;SDS011;54551;51.068;5.826;2022-09-09T13:16:58;2.90;;;1.10;;
67751;SDS011;54551;51.068;5.826;2022-09-09T13:20:27;3.90;;;1.40;;
67751;SDS011;54551;51.068;5.826;2022-09-09T13:27:24;3.47;;;1.40;;
67751;SDS011;54551;51.068;5.826;2022-09-09T13:31:05;1.80;;;1.17;;
67751;SDS011;54551;51.068;5.826;2022-09-09T13:41:03;3.00;;;1.27;;
67751;SDS011;54551;51.068;5.826;2022-09-09T13:43:41;2.13;;;1.43;;
67751;SDS011;54551;51.068;5.826;2022-09-09T13:46:34;1.93;;;1.30;;
67751;SDS011;54551;51.068;5.826;2022-09-09T13:49:54;2.47;;;1.20;;
67751;SDS011;54551;51.068;5.826;2022-09-09T14:26:45;4.10;;;1.63;;
67751;SDS011;54551;51.068;5.826;2022-09-09T14:33:18;2.90;;;1.50;;
67751;SDS011;54551;51.068;5.826;2022-09-09T14:42:58;5.70;;;1.90;;
67751;SDS011;54551;51.068;5.826;2022-09-09T14:54:32;2.57;;;1.30;;
67751;SDS011;54551;51.068;5.826;2022-09-09T15:04:40;5.20;;;1.60;;
67751;SDS011;54551;51.068;5.826;2022-09-09T15:07:42;3.63;;;1.60;;
67751;SDS011;54551;51.068;5.826;2022-09-09T15:11:23;4.50;;;1.90;;
67751;SDS011;54551;51.068;5.826;2022-09-09T15:14:47;3.13;;;1.37;;
67751;SDS011;54551;51.068;5.826;2022-09-09T15:18:34;3.50;;;1.10;;
67751;SDS011;54551;51.068;5.826;2022-09-09T15:27:34;5.23;;;1.40;;
67751;SDS011;54551;51.068;5.826;2022-09-09T15:34:30;4.23;;;1.40;;
67751;SDS011;54551;51.068;5.826;2022-09-09T15:40:22;3.00;;;1.50;;
67751;SDS011;54551;51.068;5.826;2022-09-09T15:54:39;2.27;;;1.20;;
67751;SDS011;54551;51.068;5.826;2022-09-09T15:57:30;2.20;;;1.17;;
67751;SDS011;54551;51.068;5.826;2022-09-09T16:01:05;5.23;;;1.57;;
67751;SDS011;54551;51.068;5.826;2022-09-09T16:20:04;3.13;;;1.30;;
67751;SDS011;54551;51.068;5.826;2022-09-09T16:22:45;3.73;;;1.30;;
67751;SDS011;54551;51.068;5.826;2022-09-09T16:29:13;5.70;;;1.30;;
67751;SDS011;54551;51.068;5.826;2022-09-09T16:36:22;2.70;;;1.33;;
67751;SDS011;54551;51.068;5.826;2022-09-09T16:39:17;4.57;;;1.40;;
67751;SDS011;54551;51.068;5.826;2022-09-09T16:42:04;5.23;;;1.80;;
67751;SDS011;54551;51.068;5.826;2022-09-09T16:44:38;3.50;;;1.40;;
67751;SDS011;54551;51.068;5.826;2022-09-09T16:47:48;4.00;;;1.60;;
67751;SDS011;54551;51.068;5.826;2022-09-09T16:50:39;3.07;;;1.50;;
67751;SDS011;54551;51.068;5.826;2022-09-09T16:53:21;3.63;;;1.37;;
67751;SDS011;54551;51.068;5.826;2022-09-09T16:55:47;3.60;;;1.53;;
67751;SDS011;54551;51.068;5.826;2022-09-09T17:01:29;2.83;;;1.30;;
67751;SDS011;54551;51.068;5.826;2022-09-09T17:04:52;4.53;;;1.27;;
67751;SDS011;54551;51.068;5.826;2022-09-09T17:08:05;4.07;;;1.40;;
67751;SDS011;54551;51.068;5.826;2022-09-09T17:17:32;2.97;;;1.23;;
67751;SDS011;54551;51.068;5.826;2022-09-09T17:30:19;3.27;;;1.20;;
67751;SDS011;54551;51.068;5.826;2022-09-09T17:36:36;2.90;;;1.47;;
67751;SDS011;54551;51.068;5.826;2022-09-09T17:39:57;3.10;;;1.20;;
67751;SDS011;54551;51.068;5.826;2022-09-09T17:42:43;5.40;;;1.10;;
67751;SDS011;54551;51.068;5.826;2022-09-09T17:45:52;3.13;;;1.40;;
67751;SDS011;54551;51.068;5.826;2022-09-09T17:48:30;3.00;;;1.50;;
67751;SDS011;54551;51.068;5.826;2022-09-09T17:51:09;4.20;;;1.80;;
67751;SDS011;54551;51.068;5.826;2022-09-09T17:53:42;4.13;;;1.60;;
67751;SDS011;54551;51.068;5.826;2022-09-09T17:56:29;3.10;;;1.30;;
67751;SDS011;54551;51.068;5.826;2022-09-09T17:58:57;3.77;;;1.70;;
67751;SDS011;54551;51.068;5.826;2022-09-09T18:04:30;3.00;;;1.50;;
67751;SDS011;54551;51.068;5.826;2022-09-09T18:07:19;3.83;;;1.83;;
67751;SDS011;54551;51.068;5.826;2022-09-09T18:13:41;1.23;;;0.87;;
67751;SDS011;54551;51.068;5.826;2022-09-09T18:16:11;1.90;;;0.70;;
67751;SDS011;54551;51.068;5.826;2022-09-09T18:18:38;1.60;;;0.70;;
67751;SDS011;54551;51.068;5.826;2022-09-09T18:21:23;0.97;;;0.63;;
67751;SDS011;54551;51.068;5.826;2022-09-09T18:23:53;1.97;;;0.77;;
67751;SDS011;54551;51.068;5.826;2022-09-09T18:26:24;2.57;;;1.13;;
67751;SDS011;54551;51.068;5.826;2022-09-09T18:28:54;2.07;;;0.60;;
67751;SDS011;54551;51.068;5.826;2022-09-09T18:36:05;6.50;;;1.60;;
67751;SDS011;54551;51.068;5.826;2022-09-09T18:59:01;5.63;;;1.87;;
67751;SDS011;54551;51.068;5.826;2022-09-09T19:43:57;3.77;;;2.20;;
67751;SDS011;54551;51.068;5.826;2022-09-09T19:51:58;3.47;;;1.90;;
67751;SDS011;54551;51.068;5.826;2022-09-09T19:55:22;5.93;;;2.70;;
67751;SDS011;54551;51.068;5.826;2022-09-09T20:01:36;5.90;;;2.30;;
67751;SDS011;54551;51.068;5.826;2022-09-09T20:19:27;3.30;;;2.33;;
67751;SDS011;54551;51.068;5.826;2022-09-09T20:23:07;6.00;;;2.37;;
67751;SDS011;54551;51.068;5.826;2022-09-09T20:41:00;4.87;;;2.90;;
67751;SDS011;54551;51.068;5.826;2022-09-09T20:44:15;5.20;;;2.97;;
67751;SDS011;54551;51.068;5.826;2022-09-09T21:10:31;4.33;;;2.30;;
67751;SDS011;54551;51.068;5.826;2022-09-09T21:17:59;4.47;;;2.10;;
67751;SDS011;54551;51.068;5.826;2022-09-09T21:27:47;3.73;;;1.00;;
67751;SDS011;54551;51.068;5.826;2022-09-09T21:31:26;2.10;;;0.80;;
67751;SDS011;54551;51.068;5.826;2022-09-09T21:34:43;2.57;;;0.83;;
67751;SDS011;54551;51.068;5.826;2022-09-09T21:37:18;2.80;;;0.90;;
67751;SDS011;54551;51.068;5.826;2022-09-09T21:40:00;1.83;;;0.77;;
67751;SDS011;54551;51.068;5.826;2022-09-09T21:42:36;1.13;;;0.60;;
67751;SDS011;54551;51.068;5.826;2022-09-09T21:48:29;1.60;;;0.87;;
67751;SDS011;54551;51.068;5.826;2022-09-09T21:55:59;4.57;;;0.83;;
67751;SDS011;54551;51.068;5.826;2022-09-09T21:58:44;2.17;;;1.00;;
67751;SDS011;54551;51.068;5.826;2022-09-09T22:01:22;3.10;;;0.90;;
67751;SDS011;54551;51.068;5.826;2022-09-09T22:10:48;1.67;;;0.80;;
67751;SDS011;54551;51.068;5.826;2022-09-09T22:13:48;2.43;;;0.70;;
67751;SDS011;54551;51.068;5.826;2022-09-09T22:16:31;2.30;;;0.77;;
67751;SDS011;54551;51.068;5.826;2022-09-09T22:34:45;4.00;;;1.30;;
67751;SDS011;54551;51.068;5.826;2022-09-09T22:47:59;5.07;;;1.57;;
67751;SDS011;54551;51.068;5.826;2022-09-09T22:51:10;5.33;;;1.47;;
67751;SDS011;54551;51.068;5.826;2022-09-09T22:54:26;2.80;;;1.50;;
67751;SDS011;54551;51.068;5.826;2022-09-09T22:57:12;3.43;;;1.63;;
67751;SDS011;54551;51.068;5.826;2022-09-09T23:00:20;1.60;;;1.03;;
67751;SDS011;54551;51.068;5.826;2022-09-09T23:03:18;4.93;;;1.70;;
67751;SDS011;54551;51.068;5.826;2022-09-09T23:06:36;4.00;;;1.50;;
67751;SDS011;54551;51.068;5.826;2022-09-09T23:10:11;4.63;;;1.73;;
67751;SDS011;54551;51.068;5.826;2022-09-09T23:13:11;3.53;;;1.40;;
67751;SDS011;54551;51.068;5.826;2022-09-09T23:16:58;2.60;;;1.50;;
67751;SDS011;54551;51.068;5.826;2022-09-09T23:19:46;4.60;;;1.80;;
67751;SDS011;54551;51.068;5.826;2022-09-09T23:22:40;3.60;;;1.50;;
67751;SDS011;54551;51.068;5.826;2022-09-09T23:25:08;4.33;;;1.30;;
67751;SDS011;54551;51.068;5.826;2022-09-09T23:34:58;3.33;;;1.30;;
67751;SDS011;54551;51.068;5.826;2022-09-09T23:38:39;4.70;;;1.43;;
67751;SDS011;54551;51.068;5.826;2022-09-09T23:41:27;5.03;;;1.73;;
67751;SDS011;54551;51.068;5.826;2022-09-09T23:48:46;2.63;;;1.87;;
67751;SDS011;54551;51.068;5.826;2022-09-09T23:54:52;5.07;;;2.00;;
67751;SDS011;54551;51.068;5.826;2022-09-09T23:57:34;3.63;;;1.93;;
